createdAt,value
2022-12-28T00:01:43.849Z,7.68
2022-12-28T00:04:13.484Z,7.69
2022-12-28T00:06:41.127Z,7.70
2022-12-28T00:09:09.040Z,7.70
2022-12-28T00:11:35.812Z,7.70
2022-12-28T00:14:02.600Z,7.70
2022-12-28T00:16:30.928Z,7.70
2022-12-28T00:18:58.599Z,7.70
2022-12-28T00:21:26.608Z,7.70
2022-12-28T00:23:54.383Z,7.74
2022-12-28T00:26:26.837Z,7.76
2022-12-28T00:28:59.763Z,7.77
2022-12-28T00:31:30.404Z,7.77
2022-12-28T00:33:57.148Z,7.77
2022-12-28T00:36:23.903Z,7.78
2022-12-28T00:38:50.727Z,7.76
2022-12-28T00:41:18.309Z,7.77
2022-12-28T00:43:46.243Z,7.67
2022-12-28T00:46:13.396Z,7.78
2022-12-28T00:48:40.153Z,7.79
2022-12-28T00:51:15.656Z,7.82
2022-12-28T00:53:43.519Z,7.82
2022-12-28T00:56:11.992Z,7.83
2022-12-28T00:58:39.150Z,7.81
2022-12-28T01:01:06.725Z,7.81
2022-12-28T01:03:33.563Z,7.82
2022-12-28T01:06:00.366Z,7.83
2022-12-28T01:08:27.199Z,7.83
2022-12-28T01:10:53.887Z,7.84
2022-12-28T01:13:24.767Z,7.85
2022-12-28T01:15:51.520Z,7.86
2022-12-28T01:18:19.996Z,7.86
2022-12-28T01:20:46.840Z,7.85
2022-12-28T01:23:13.483Z,7.85
2022-12-28T01:25:41.859Z,7.85
2022-12-28T01:28:08.616Z,7.87
2022-12-28T01:30:39.174Z,7.86
2022-12-28T01:33:05.980Z,7.88
2022-12-28T01:35:32.818Z,7.85
2022-12-28T01:37:59.522Z,7.86
2022-12-28T01:40:26.404Z,7.82
2022-12-28T01:42:53.206Z,7.81
2022-12-28T01:45:21.439Z,7.79
2022-12-28T01:47:50.756Z,7.73
2022-12-28T01:50:21.399Z,7.70
2022-12-28T01:52:56.992Z,7.66
2022-12-28T01:55:35.028Z,7.62
2022-12-28T01:58:08.074Z,7.53
2022-12-28T02:00:35.753Z,7.49
2022-12-28T02:03:13.301Z,7.46
2022-12-28T02:05:42.942Z,7.43
2022-12-28T02:08:09.652Z,7.40
2022-12-28T02:10:41.474Z,7.38
2022-12-28T02:13:13.073Z,7.33
2022-12-28T02:15:39.780Z,7.29
2022-12-28T02:18:06.994Z,7.17
2022-12-28T02:20:52.191Z,7.04
2022-12-28T02:23:22.068Z,6.99
2022-12-28T02:26:07.287Z,6.97
2022-12-28T02:28:52.636Z,6.91
2022-12-28T02:31:31.031Z,6.85
2022-12-28T02:34:24.143Z,6.80
2022-12-28T02:36:55.478Z,6.72
2022-12-28T02:39:25.883Z,6.61
2022-12-28T02:41:53.277Z,6.55
2022-12-28T02:44:39.359Z,6.49
2022-12-28T02:47:31.544Z,6.44
2022-12-28T02:50:08.317Z,6.38
2022-12-28T02:52:36.181Z,6.35
2022-12-28T02:55:40.973Z,6.34
2022-12-28T02:58:34.155Z,6.33
2022-12-28T03:01:02.103Z,6.32
2022-12-28T03:03:44.207Z,6.31
2022-12-28T03:06:33.364Z,6.29
2022-12-28T03:09:03.439Z,6.28
2022-12-28T03:11:39.010Z,6.28
2022-12-28T03:14:08.311Z,6.28
2022-12-28T03:16:56.636Z,6.26
2022-12-28T03:19:48.155Z,6.24
2022-12-28T03:22:33.776Z,6.21
2022-12-28T03:25:20.785Z,6.19
2022-12-28T03:28:09.561Z,6.17
2022-12-28T03:30:58.020Z,6.14
2022-12-28T03:33:25.099Z,6.08
2022-12-28T03:35:54.877Z,6.04
2022-12-28T03:38:31.899Z,5.97
2022-12-28T03:41:02.557Z,5.86
2022-12-28T03:43:44.941Z,5.82
2022-12-28T03:46:15.341Z,5.73
2022-12-28T03:48:44.497Z,5.64
2022-12-28T03:51:13.844Z,5.52
2022-12-28T03:53:43.649Z,5.42
2022-12-28T03:56:14.987Z,5.31
2022-12-28T03:58:44.087Z,5.22
2022-12-28T04:01:11.045Z,5.11
2022-12-28T04:03:40.542Z,5.04
2022-12-28T04:06:08.129Z,4.97
2022-12-28T04:08:35.309Z,4.87
2022-12-28T04:11:04.943Z,4.79
2022-12-28T04:13:32.877Z,4.69
2022-12-28T04:16:12.958Z,4.58
2022-12-28T04:18:43.056Z,4.51
2022-12-28T04:21:10.878Z,4.42
2022-12-28T04:23:39.957Z,4.33
2022-12-28T04:26:16.614Z,4.24
2022-12-28T04:28:45.278Z,4.17
2022-12-28T04:31:20.776Z,4.10
2022-12-28T04:33:58.292Z,4.05
2022-12-28T04:36:28.881Z,3.98
2022-12-28T04:38:58.168Z,3.88
2022-12-28T04:41:24.975Z,3.80
2022-12-28T04:43:53.969Z,3.68
2022-12-28T04:46:20.777Z,3.61
2022-12-28T04:48:47.543Z,3.54
2022-12-28T04:51:25.317Z,3.51
2022-12-28T04:53:52.598Z,3.44
2022-12-28T04:56:20.330Z,3.40
2022-12-28T04:58:47.460Z,3.36
2022-12-28T05:01:15.841Z,3.29
2022-12-28T05:03:43.440Z,3.22
2022-12-28T05:06:14.299Z,3.18
2022-12-28T05:08:41.175Z,3.18
2022-12-28T05:11:09.161Z,3.20
2022-12-28T05:13:35.941Z,3.20
2022-12-28T05:16:07.140Z,3.18
2022-12-28T05:18:35.998Z,3.21
2022-12-28T05:21:03.798Z,3.24
2022-12-28T05:23:31.271Z,3.24
2022-12-28T05:25:58.271Z,3.23
2022-12-28T05:28:26.392Z,3.24
2022-12-28T05:30:53.571Z,3.27
2022-12-28T05:33:20.610Z,3.31
2022-12-28T05:35:47.325Z,3.33
2022-12-28T05:38:14.079Z,3.33
2022-12-28T05:40:40.820Z,3.36
2022-12-28T05:43:07.588Z,3.41
2022-12-28T05:45:34.400Z,3.47
2022-12-28T05:48:01.290Z,3.52
2022-12-28T05:50:28.099Z,3.58
2022-12-28T05:52:56.334Z,3.65
2022-12-28T05:55:23.110Z,3.71
2022-12-28T05:57:51.431Z,3.74
2022-12-28T06:00:18.262Z,3.79
2022-12-28T06:02:45.281Z,3.82
2022-12-28T06:05:12.018Z,3.84
2022-12-28T06:07:38.863Z,3.89
2022-12-28T06:10:05.946Z,3.92
2022-12-28T06:12:32.740Z,3.96
2022-12-28T06:14:59.713Z,3.99
2022-12-28T06:17:26.532Z,4.04
2022-12-28T06:19:53.754Z,4.07
2022-12-28T06:22:24.738Z,4.12
2022-12-28T06:24:51.730Z,4.16
2022-12-28T06:27:18.397Z,4.19
2022-12-28T06:29:45.268Z,4.22
2022-12-28T06:32:11.973Z,4.25
2022-12-28T06:34:38.877Z,4.25
2022-12-28T06:37:05.602Z,4.30
2022-12-28T06:39:32.349Z,4.32
2022-12-28T06:41:59.062Z,4.32
2022-12-28T06:44:25.911Z,4.32
2022-12-28T06:46:52.538Z,4.32
2022-12-28T06:49:19.342Z,4.32
2022-12-28T06:51:46.105Z,4.31
2022-12-28T06:54:12.803Z,4.28
2022-12-28T06:56:39.757Z,4.30
2022-12-28T06:59:06.784Z,4.29
2022-12-28T07:01:35.246Z,4.27
2022-12-28T07:04:03.308Z,4.28
2022-12-28T07:06:30.692Z,4.09
2022-12-28T07:09:01.614Z,4.30
2022-12-28T07:11:29.259Z,4.34
2022-12-28T07:13:56.406Z,4.40
2022-12-28T07:16:24.323Z,4.46
2022-12-28T07:18:51.071Z,4.54
2022-12-28T07:21:22.508Z,4.63
2022-12-28T07:23:51.105Z,4.72
2022-12-28T07:26:20.662Z,4.83
2022-12-28T07:28:48.367Z,4.90
2022-12-28T07:31:16.924Z,4.95
2022-12-28T07:33:45.193Z,4.97
2022-12-28T07:36:13.248Z,4.82
2022-12-28T07:38:40.161Z,5.03
2022-12-28T07:41:07.925Z,5.03
2022-12-28T07:43:34.856Z,5.01
2022-12-28T07:46:02.629Z,5.00
2022-12-28T07:48:31.518Z,5.03
2022-12-28T07:50:58.610Z,5.08
2022-12-28T07:53:25.475Z,5.12
2022-12-28T07:55:58.936Z,5.14
2022-12-28T07:58:25.918Z,5.17
2022-12-28T08:00:53.643Z,5.25
2022-12-28T08:03:20.914Z,5.36
2022-12-28T08:05:47.615Z,5.55
2022-12-28T08:08:14.510Z,5.64
2022-12-28T08:10:41.282Z,5.71
2022-12-28T08:13:08.824Z,5.76
2022-12-28T08:15:35.523Z,5.80
2022-12-28T08:18:02.440Z,5.94
2022-12-28T08:20:29.187Z,6.18
2022-12-28T08:22:55.908Z,6.43
2022-12-28T08:25:22.688Z,6.96
2022-12-28T08:27:49.848Z,7.35
2022-12-28T08:30:16.598Z,7.77
2022-12-28T08:32:43.614Z,7.88
2022-12-28T08:35:10.282Z,7.81
2022-12-28T08:37:37.467Z,7.63
2022-12-28T08:40:04.582Z,7.48
2022-12-28T08:42:31.950Z,7.32
2022-12-28T08:44:58.657Z,7.22
2022-12-28T08:47:25.504Z,7.15
2022-12-28T08:49:52.155Z,7.09
2022-12-28T08:52:18.968Z,7.02
2022-12-28T08:54:45.728Z,6.98
2022-12-28T08:57:12.450Z,6.96
2022-12-28T08:59:39.156Z,6.97
2022-12-28T09:02:07.051Z,6.95
2022-12-28T09:04:33.799Z,6.94
2022-12-28T09:07:00.557Z,6.98
2022-12-28T09:09:27.318Z,6.98
2022-12-28T09:11:54.164Z,7.01
2022-12-28T09:14:24.213Z,6.99
2022-12-28T09:16:53.252Z,6.96
2022-12-28T09:19:21.243Z,6.95
2022-12-28T09:21:49.428Z,6.92
2022-12-28T09:24:16.346Z,6.95
2022-12-28T09:26:43.971Z,6.96
2022-12-28T09:29:12.208Z,7.03
2022-12-28T09:31:40.952Z,7.12
2022-12-28T09:36:56.673Z,7.49
2022-12-28T09:39:25.201Z,7.62
2022-12-28T09:41:55.181Z,7.71
2022-12-28T09:44:30.924Z,7.82
2022-12-28T09:47:03.398Z,7.94
2022-12-28T09:49:36.407Z,7.97
2022-12-28T09:52:15.581Z,8.10
2022-12-28T09:54:42.582Z,8.25
2022-12-28T09:57:16.872Z,8.53
2022-12-28T09:59:44.776Z,9.35
2022-12-28T10:02:26.297Z,10.58
2022-12-28T10:04:53.455Z,10.78
2022-12-28T10:07:20.250Z,11.30
2022-12-28T10:09:47.976Z,12.08
2022-12-28T10:12:19.899Z,12.28
2022-12-28T10:14:47.759Z,12.39
2022-12-28T10:17:15.317Z,12.49
2022-12-28T10:19:46.793Z,12.61
2022-12-28T10:22:19.045Z,12.89
2022-12-28T10:24:47.508Z,13.09
2022-12-28T10:27:22.894Z,13.66
2022-12-28T10:29:53.787Z,12.94
2022-12-28T10:32:21.287Z,12.80
2022-12-28T10:34:53.775Z,13.03
2022-12-28T10:37:21.922Z,12.84
2022-12-28T10:39:58.895Z,12.54
2022-12-28T10:42:28.393Z,12.25
2022-12-28T10:45:00.419Z,11.91
2022-12-28T10:47:36.098Z,11.69
2022-12-28T10:50:36.084Z,11.52
2022-12-28T10:52:56.345Z,11.57
2022-12-28T10:55:26.889Z,11.72
2022-12-28T10:58:27.486Z,11.67
2022-12-28T11:00:41.761Z,11.56
2022-12-28T11:03:19.436Z,11.53
2022-12-28T11:05:47.996Z,11.51
2022-12-28T11:08:23.482Z,11.49
2022-12-28T11:10:56.482Z,11.53
2022-12-28T11:13:23.360Z,11.63
2022-12-28T11:15:50.068Z,11.75
2022-12-28T11:18:18.148Z,11.76
2022-12-28T11:20:46.365Z,11.45
2022-12-28T11:23:18.335Z,11.41
2022-12-28T11:25:45.541Z,11.38
2022-12-28T11:28:13.937Z,11.37
2022-12-28T11:30:40.935Z,11.45
2022-12-28T11:33:23.301Z,11.54
2022-12-28T11:35:57.526Z,11.79
2022-12-28T11:38:40.289Z,12.05
2022-12-28T11:41:09.855Z,12.68
2022-12-28T11:43:39.937Z,13.84
2022-12-28T11:46:33.165Z,13.70
2022-12-28T11:49:01.332Z,13.59
2022-12-28T11:51:29.383Z,13.64
2022-12-28T11:54:07.667Z,13.80
2022-12-28T11:56:46.510Z,14.33
2022-12-28T11:59:22.755Z,15.66
2022-12-28T12:01:50.834Z,15.64
2022-12-28T12:04:28.540Z,15.86
2022-12-28T12:06:55.249Z,15.71
2022-12-28T12:09:21.936Z,15.14
2022-12-28T12:11:49.602Z,14.66
2022-12-28T12:14:17.915Z,14.54
2022-12-28T12:16:50.380Z,14.94
2022-12-28T12:19:28.891Z,15.09
2022-12-28T12:22:00.771Z,15.07
2022-12-28T12:24:30.729Z,14.93
2022-12-28T12:27:01.251Z,14.80
2022-12-28T12:29:31.389Z,15.38
2022-12-28T12:32:06.592Z,16.68
2022-12-28T12:34:44.908Z,17.25
2022-12-28T12:37:14.787Z,17.15
2022-12-28T12:39:50.608Z,16.98
2022-12-28T12:42:35.779Z,16.59
2022-12-28T12:45:18.170Z,17.37
2022-12-28T12:48:03.529Z,18.20
2022-12-28T12:50:34.288Z,18.53
2022-12-28T12:53:04.075Z,18.86
2022-12-28T12:55:42.524Z,18.69
2022-12-28T12:58:17.649Z,17.71
2022-12-28T13:00:53.626Z,16.97
2022-12-28T13:03:50.044Z,17.07
2022-12-28T13:06:20.264Z,17.61
2022-12-28T13:08:53.261Z,17.13
2022-12-28T13:11:21.520Z,17.79
2022-12-28T13:13:50.020Z,18.09
2022-12-28T13:16:22.048Z,17.83
2022-12-28T13:18:57.712Z,17.85
2022-12-28T13:21:26.048Z,17.95
2022-12-28T13:23:53.213Z,18.34
2022-12-28T13:26:26.086Z,18.44
2022-12-28T13:28:57.399Z,18.56
2022-12-28T13:31:29.277Z,18.22
2022-12-28T13:33:56.797Z,17.28
2022-12-28T13:36:23.575Z,16.62
2022-12-28T13:39:00.325Z,15.97
2022-12-28T13:41:28.123Z,15.30
2022-12-28T13:44:10.702Z,14.75
2022-12-28T13:46:39.601Z,14.24
2022-12-28T13:49:06.668Z,13.81
2022-12-28T13:51:37.651Z,13.51
2022-12-28T13:54:05.073Z,13.45
2022-12-28T13:56:32.487Z,13.90
2022-12-28T13:59:02.329Z,14.05
2022-12-28T14:01:35.786Z,14.00
2022-12-28T14:04:42.298Z,13.66
2022-12-28T14:06:54.740Z,13.12
2022-12-28T14:09:21.934Z,12.68
2022-12-28T14:11:49.713Z,12.29
2022-12-28T14:14:17.165Z,11.97
2022-12-28T14:16:44.280Z,11.69
2022-12-28T14:19:11.264Z,11.48
2022-12-28T14:21:41.017Z,11.31
2022-12-28T14:24:09.843Z,11.18
2022-12-28T14:26:38.428Z,11.02
2022-12-28T14:29:10.461Z,10.87
2022-12-28T14:31:37.377Z,10.72
2022-12-28T14:34:05.287Z,10.61
2022-12-28T14:36:34.175Z,10.49
2022-12-28T14:39:05.002Z,10.39
2022-12-28T14:41:39.855Z,10.31
2022-12-28T14:44:14.068Z,10.22
2022-12-28T14:46:41.357Z,10.16
2022-12-28T14:49:26.871Z,10.07
2022-12-28T14:51:53.876Z,10.00
2022-12-28T14:54:22.159Z,9.95
2022-12-28T14:57:13.644Z,9.90
2022-12-28T14:59:44.539Z,9.88
2022-12-28T15:02:30.123Z,9.82
2022-12-28T15:05:00.624Z,9.74
2022-12-28T15:07:27.879Z,9.71
2022-12-28T15:09:54.580Z,9.71
2022-12-28T15:12:22.143Z,9.72
2022-12-28T15:14:49.118Z,9.73
2022-12-28T15:17:16.552Z,9.73
2022-12-28T15:19:45.027Z,9.71
2022-12-28T15:22:12.227Z,9.66
2022-12-28T15:24:40.377Z,9.64
2022-12-28T15:27:07.260Z,9.60
2022-12-28T15:32:21.002Z,9.49
2022-12-28T15:34:47.752Z,9.46
2022-12-28T15:37:14.515Z,9.42
2022-12-28T15:39:41.242Z,9.37
2022-12-28T15:42:08.900Z,9.32
2022-12-28T15:44:35.603Z,9.29
2022-12-28T15:47:04.055Z,9.25
2022-12-28T15:49:30.789Z,9.22
2022-12-28T15:51:57.640Z,9.19
2022-12-28T15:54:24.403Z,9.16
2022-12-28T15:56:55.447Z,9.13
2022-12-28T15:59:22.527Z,9.08
2022-12-28T16:01:49.467Z,9.06
2022-12-28T16:04:16.567Z,9.02
2022-12-28T16:06:44.995Z,8.98
2022-12-28T16:09:12.907Z,8.97
2022-12-28T16:11:39.693Z,8.97
2022-12-28T16:14:07.235Z,8.98
2022-12-28T16:16:36.754Z,8.96
2022-12-28T16:19:03.914Z,8.94
2022-12-28T16:21:30.897Z,8.91
2022-12-28T16:23:59.255Z,8.87
2022-12-28T16:26:26.349Z,8.83
2022-12-28T16:28:53.613Z,8.79
2022-12-28T16:31:24.994Z,8.76
2022-12-28T16:33:56.969Z,8.71
2022-12-28T16:36:25.912Z,8.66
2022-12-28T16:38:53.113Z,8.62
2022-12-28T16:41:20.528Z,8.60
2022-12-28T16:43:48.049Z,8.58
2022-12-28T16:46:14.947Z,8.59
2022-12-28T16:48:41.729Z,8.59
2022-12-28T16:51:08.530Z,8.57
2022-12-28T16:53:36.458Z,8.57
2022-12-28T16:56:05.489Z,8.54
2022-12-28T16:58:32.421Z,8.54
2022-12-28T17:01:04.496Z,8.50
2022-12-28T17:03:35.351Z,8.50
2022-12-28T17:06:02.127Z,8.50
2022-12-28T17:08:29.104Z,8.50
2022-12-28T17:10:56.011Z,8.50
2022-12-28T17:13:23.114Z,8.51
2022-12-28T17:15:50.361Z,8.52
2022-12-28T17:18:17.712Z,8.54
2022-12-28T17:20:44.972Z,8.53
2022-12-28T17:23:12.105Z,8.52
2022-12-28T17:25:39.137Z,8.52
2022-12-28T17:28:05.947Z,8.52
2022-12-28T17:30:33.569Z,8.52
2022-12-28T17:33:00.537Z,8.55
2022-12-28T17:35:27.287Z,8.54
2022-12-28T17:37:54.056Z,8.54
2022-12-28T17:40:21.004Z,8.54
2022-12-28T17:42:48.594Z,8.54
2022-12-28T17:45:15.337Z,8.54
2022-12-28T17:47:42.247Z,8.56
2022-12-28T17:50:09.123Z,8.58
2022-12-28T17:52:35.977Z,8.57
2022-12-28T17:55:03.678Z,8.57
2022-12-28T17:57:35.329Z,8.57
2022-12-28T18:00:06.428Z,8.58
2022-12-28T18:02:39.202Z,8.58
2022-12-28T18:05:06.550Z,8.59
2022-12-28T18:07:34.043Z,8.58
2022-12-28T18:10:00.848Z,8.57
2022-12-28T18:12:28.093Z,8.57
2022-12-28T18:14:54.891Z,8.56
2022-12-28T18:17:23.498Z,8.55
2022-12-28T18:19:53.714Z,8.52
2022-12-28T18:22:23.081Z,8.53
2022-12-28T18:24:50.787Z,8.54
2022-12-28T18:27:17.732Z,8.52
2022-12-28T18:29:45.351Z,8.51
2022-12-28T18:32:12.111Z,8.53
2022-12-28T18:34:38.977Z,8.52
2022-12-28T18:37:06.096Z,8.51
2022-12-28T18:39:33.892Z,8.49
2022-12-28T18:42:01.381Z,8.50
2022-12-28T18:44:28.950Z,8.48
2022-12-28T18:46:55.745Z,8.46
2022-12-28T18:49:22.797Z,8.43
2022-12-28T18:51:49.518Z,8.42
2022-12-28T18:54:17.194Z,8.37
2022-12-28T18:56:43.997Z,8.35
2022-12-28T18:59:10.878Z,8.33
2022-12-28T19:02:05.950Z,8.29
2022-12-28T19:04:26.843Z,8.27
2022-12-28T19:06:53.750Z,8.24
2022-12-28T19:09:20.970Z,8.22
2022-12-28T19:11:47.735Z,8.21
2022-12-28T19:14:16.299Z,8.23
2022-12-28T19:16:44.273Z,8.23
2022-12-28T19:19:12.096Z,8.21
2022-12-28T19:21:40.356Z,8.18
2022-12-28T19:24:15.527Z,8.22
2022-12-28T19:26:42.663Z,8.24
2022-12-28T19:29:10.953Z,8.25
2022-12-28T19:31:37.885Z,8.28
2022-12-28T19:34:04.564Z,8.28
2022-12-28T19:36:31.421Z,8.30
2022-12-28T19:38:58.289Z,8.30
2022-12-28T19:41:25.414Z,8.29
2022-12-28T19:43:52.235Z,8.30
2022-12-28T19:46:20.188Z,8.28
2022-12-28T19:48:46.930Z,8.28
2022-12-28T19:51:14.325Z,8.28
2022-12-28T19:53:41.336Z,8.31
2022-12-28T19:56:09.332Z,8.30
2022-12-28T19:58:37.108Z,8.27
2022-12-28T20:01:08.197Z,8.27
2022-12-28T20:03:35.869Z,8.27
2022-12-28T20:06:10.259Z,8.29
2022-12-28T20:08:38.227Z,8.27
2022-12-28T20:11:05.663Z,8.27
2022-12-28T20:13:33.018Z,8.25
2022-12-28T20:16:00.555Z,8.23
2022-12-28T20:18:27.554Z,8.18
2022-12-28T20:23:48.163Z,8.20
2022-12-28T20:26:15.116Z,8.20
2022-12-28T20:28:42.005Z,8.21
2022-12-28T20:31:10.937Z,8.21
2022-12-28T20:33:38.230Z,8.20
2022-12-28T20:36:06.072Z,8.21
2022-12-28T20:38:33.287Z,8.19
2022-12-28T20:41:04.318Z,7.77
2022-12-28T20:43:32.197Z,8.18
2022-12-28T20:45:59.039Z,8.20
2022-12-28T20:48:26.259Z,8.21
2022-12-28T20:50:57.240Z,8.20
2022-12-28T20:53:25.257Z,8.22
2022-12-28T20:55:52.462Z,8.20
2022-12-28T20:58:20.044Z,8.12
2022-12-28T21:00:46.822Z,8.05
2022-12-28T21:03:13.735Z,8.05
2022-12-28T21:05:40.471Z,8.06
2022-12-28T21:08:07.305Z,8.06
2022-12-28T21:10:34.222Z,8.06
2022-12-28T21:13:01.977Z,8.06
2022-12-28T21:15:28.773Z,8.06
2022-12-28T21:17:57.314Z,8.07
2022-12-28T21:20:24.144Z,8.06
2022-12-28T21:22:51.542Z,8.08
2022-12-28T21:25:18.241Z,8.08
2022-12-28T21:27:45.017Z,8.08
2022-12-28T21:30:11.859Z,8.08
2022-12-28T21:32:38.623Z,8.07
2022-12-28T21:35:05.561Z,8.05
2022-12-28T21:37:35.303Z,8.04
2022-12-28T21:40:05.421Z,8.03
2022-12-28T21:42:32.332Z,8.00
2022-12-28T21:44:59.947Z,8.00
2022-12-28T21:47:26.740Z,7.97
2022-12-28T21:49:54.178Z,7.97
2022-12-28T21:52:21.039Z,7.87
2022-12-28T21:54:48.270Z,7.85
2022-12-28T21:57:15.023Z,7.89
2022-12-28T21:59:41.803Z,7.92
2022-12-28T22:02:45.184Z,7.95
2022-12-28T22:05:32.097Z,7.99
2022-12-28T22:08:18.812Z,8.01
2022-12-28T22:11:05.766Z,8.06
2022-12-28T22:13:32.532Z,8.09
2022-12-28T22:15:59.267Z,8.12
2022-12-28T22:21:13.950Z,8.15
2022-12-28T22:23:40.657Z,8.13
2022-12-28T22:26:07.528Z,8.13
2022-12-28T22:28:34.331Z,8.09
2022-12-28T22:31:04.947Z,8.05
2022-12-28T22:33:32.307Z,8.02
2022-12-28T22:36:12.247Z,7.98
2022-12-28T22:38:39.119Z,7.90
2022-12-28T22:41:06.140Z,7.82
2022-12-28T22:43:33.388Z,7.77
2022-12-28T22:46:01.240Z,7.72
2022-12-28T22:48:28.287Z,7.67
2022-12-28T22:50:55.027Z,7.58
2022-12-28T22:53:21.835Z,7.51
2022-12-28T22:55:58.398Z,7.39
2022-12-28T22:58:26.740Z,7.31
2022-12-28T23:01:02.073Z,7.25
2022-12-28T23:03:29.043Z,7.21
2022-12-28T23:05:55.810Z,7.18
2022-12-28T23:08:23.162Z,7.18
2022-12-28T23:10:54.046Z,7.18
2022-12-28T23:13:20.884Z,7.18
2022-12-28T23:16:04.328Z,7.20
2022-12-28T23:18:49.848Z,7.19
2022-12-28T23:21:36.715Z,7.22
2022-12-28T23:24:22.789Z,7.24
2022-12-28T23:27:07.857Z,7.26
2022-12-28T23:29:34.649Z,7.29
2022-12-28T23:32:01.386Z,7.31
2022-12-28T23:34:28.207Z,7.33
2022-12-28T23:36:54.887Z,7.37
2022-12-28T23:39:23.524Z,7.40
2022-12-28T23:41:51.026Z,7.42
2022-12-28T23:44:19.396Z,7.45
2022-12-28T23:46:46.914Z,7.46
2022-12-28T23:49:14.465Z,7.46
2022-12-28T23:51:41.566Z,7.44
2022-12-28T23:54:09.920Z,7.48
2022-12-28T23:56:36.663Z,7.52
2022-12-28T23:59:04.308Z,7.58
